Time;durP1;ratioP1;P1;durP2;ratioP2;P2;SDS_P1;SDS_P2;PMS_P1;PMS_P2;Temp;Humidity;BMP_temperature;BMP_pressure;BME280_temperature;BME280_humidity;BME280_pressure;Samples;Min_cycle;Max_cycle;Signal;HPM_P1;HPM_P2
2022/04/28 00:00:59;;;;;;;8.57;6.05;;;;;;;31.67;65.15;100674.81;5038350;28;70479;-34
2022/04/28 00:03:29;;;;;;;10.20;5.68;;;;;;;31.73;65.22;100678.47;5022929;28;66282;-35
2022/04/28 00:05:59;;;;;;;33.67;6.65;;;;;;;31.59;67.23;100667.00;5038578;28;70701;-36
2022/04/28 00:08:30;;;;;;;11.13;6.80;;;;;;;31.67;67.64;100676.69;5037596;28;66445;-36
2022/04/28 00:11:01;;;;;;;8.03;5.17;;;;;;;31.68;68.18;100694.59;5040435;28;69441;-37
2022/04/28 00:13:31;;;;;;;5.70;5.15;;;;;;;31.73;67.95;100701.03;5039842;28;65930;-36
2022/04/28 00:16:02;;;;;;;11.02;5.47;;;;;;;31.78;67.44;100708.44;5037768;28;69719;-34
2022/04/28 00:18:32;;;;;;;7.97;5.65;;;;;;;31.86;67.62;100710.84;5032175;28;66253;-34
2022/04/28 00:21:03;;;;;;;11.18;6.57;;;;;;;31.87;67.98;100717.91;5032838;28;69500;-34
2022/04/28 00:23:33;;;;;;;7.63;5.20;;;;;;;31.92;67.45;100720.78;5039360;28;65297;-34
2022/04/28 00:26:03;;;;;;;6.90;5.63;;;;;;;31.94;67.87;100724.09;5039903;28;69729;-35
2022/04/28 00:28:33;;;;;;;11.60;5.35;;;;;;;31.94;67.91;100723.28;5038029;28;66498;-34
2022/04/28 00:31:04;;;;;;;9.35;4.95;;;;;;;31.95;67.18;100723.03;5036525;28;70272;-35
2022/04/28 00:33:34;;;;;;;6.97;4.70;;;;;;;31.96;67.29;100732.03;5038093;28;65911;-34
2022/04/28 00:36:05;;;;;;;4.00;3.72;;;;;;;31.99;66.35;100726.97;5031448;28;68730;-34
2022/04/28 00:38:35;;;;;;;3.80;3.60;;;;;;;32.09;66.25;100734.53;5038118;28;66474;-34
2022/04/28 00:41:06;;;;;;;3.85;3.53;;;;;;;31.80;65.68;100684.66;5037462;28;70381;-34
2022/04/28 00:43:48;;;;;;;3.63;3.30;;;;;;;31.72;66.56;100676.84;5036673;28;65979;-34
2022/04/28 00:46:19;;;;;;;;;;;;;;;31.92;67.54;100742.50;5038535;28;69953;-34
2022/04/28 00:51:40;;;;;;;3.60;3.30;;;;;;;32.28;64.25;100757.00;5037431;28;69245;-34
2022/04/28 00:54:10;;;;;;;3.88;3.50;;;;;;;32.33;64.45;100762.56;5037869;28;65717;-35
2022/04/28 00:56:42;;;;;;;3.35;3.08;;;;;;;32.37;63.97;100763.72;5039520;28;70703;-34
2022/04/28 00:59:13;;;;;;;3.47;3.17;;;;;;;32.42;63.71;100766.56;5039255;28;65288;-39
2022/04/28 01:01:43;;;;;;;3.65;3.45;;;;;;;32.46;63.66;100765.09;5039991;28;70209;-35
2022/04/28 01:04:14;;;;;;;3.03;2.83;;;;;;;32.46;63.26;100765.09;5024779;28;65147;-37
2022/04/28 01:06:44;;;;;;;4.20;3.40;;;;;;;32.40;63.42;100743.44;5041468;28;70007;-35
2022/04/28 01:09:16;;;;;;;3.78;3.38;;;;;;;32.52;63.33;100755.19;5040391;28;66618;-34
2022/04/28 01:11:46;;;;;;;3.40;3.10;;;;;;;32.56;62.90;100756.34;5041800;28;69651;-34
2022/04/28 01:14:23;;;;;;;3.80;3.60;;;;;;;32.60;62.52;100754.00;5039946;28;65734;-34
2022/04/28 01:17:01;;;;;;;5.80;5.50;;;;;;;32.18;62.24;100675.31;5040828;28;69530;-34
2022/04/28 01:19:33;;;;;;;6.35;5.95;;;;;;;32.60;62.05;100754.00;5038105;28;66570;-34
2022/04/28 01:22:05;;;;;;;;;;;;;;;32.33;63.36;100759.84;5039852;28;68866;-34
2022/04/28 01:24:36;;;;;;;5.43;5.13;;;;;;;32.63;62.02;100762.50;5040600;28;66082;-35
2022/04/28 01:27:11;;;;;;;5.28;4.97;;;;;;;32.67;61.85;100766.41;5040226;28;70420;-33
2022/04/28 01:29:42;;;;;;;5.35;5.05;;;;;;;32.63;61.46;100754.34;5034647;28;65617;-35
2022/04/28 01:32:13;;;;;;;5.50;5.05;;;;;;;32.73;61.66;100770.06;5040200;28;69960;-34
2022/04/28 01:34:45;;;;;;;5.40;4.97;;;;;;;32.75;61.35;100767.94;5040221;28;65688;-34
2022/04/28 01:37:16;;;;;;;5.20;4.90;;;;;;;32.77;61.42;100763.09;5038430;28;71035;-34
2022/04/28 01:39:47;;;;;;;5.13;4.82;;;;;;;32.76;60.94;100758.72;5040859;28;66726;-34
2022/04/28 01:42:17;;;;;;;5.00;4.60;;;;;;;32.82;60.99;100752.38;5039323;28;70577;-36
2022/04/28 01:44:47;;;;;;;4.93;4.63;;;;;;;32.73;60.87;100737.47;5040496;28;66626;-35
2022/04/28 01:47:17;;;;;;;4.25;3.95;;;;;;;32.86;60.74;100753.53;5040568;28;70139;-34
2022/04/28 01:50:12;;;;;;;4.97;4.68;;;;;;;32.87;60.91;100749.75;5042297;28;65763;-33
2022/04/28 01:56:09;;;;;;;4.70;4.40;;;;;;;32.90;60.57;100760.16;5038718;28;66786;-35
2022/04/28 01:58:57;;;;;;;4.60;4.40;;;;;;;32.89;60.40;100763.09;5042497;28;69638;-35
2022/04/28 02:01:46;;;;;;;4.63;4.32;;;;;;;32.94;60.12;100766.75;5039049;28;64923;-35
2022/04/28 02:04:19;;;;;;;4.72;4.32;;;;;;;32.98;60.15;100777.16;5025796;28;43082;-34
2022/04/28 02:06:53;;;;;;;3.90;3.70;;;;;;;32.98;59.82;100772.53;5039411;28;66248;-34
2022/04/28 02:09:23;;;;;;;5.18;4.22;;;;;;;32.99;59.81;100784.22;5024302;28;70250;-34
2022/04/28 02:11:54;;;;;;;4.20;3.90;;;;;;;33.00;59.83;100792.19;5039996;28;65769;-34
2022/04/28 02:14:56;;;;;;;4.57;4.13;;;;;;;33.00;59.86;100780.50;5017982;28;70351;-35
2022/04/28 02:17:37;;;;;;;4.63;4.32;;;;;;;33.00;59.44;100797.63;5039951;28;65935;-34
2022/04/28 02:20:10;;;;;;;4.10;3.90;;;;;;;33.06;59.87;100798.56;5023591;28;69381;-34
2022/04/28 02:22:42;;;;;;;4.35;4.05;;;;;;;33.05;59.69;100800.47;5040593;28;66397;-34
2022/04/28 02:25:13;;;;;;;4.85;4.55;;;;;;;33.07;59.51;100805.63;5040859;28;69438;-34
2022/04/28 02:27:43;;;;;;;4.25;3.95;;;;;;;33.09;59.52;100800.81;5040678;28;66590;-34
2022/04/28 02:30:13;;;;;;;4.15;3.85;;;;;;;33.09;59.38;100795.38;5021333;28;69506;-34
2022/04/28 02:35:42;;;;;;;4.40;4.10;;;;;;;33.01;59.06;100782.97;5036180;28;70226;-34
2022/04/28 02:38:12;;;;;;;3.60;3.40;;;;;;;33.09;59.14;100798.09;5032824;28;66873;-33
2022/04/28 02:40:42;;;;;;;4.20;3.90;;;;;;;33.16;59.25;100801.53;5040699;28;70033;-34
2022/04/28 02:43:12;;;;;;;3.90;3.70;;;;;;;33.17;59.04;100795.00;5041785;28;66500;-35
2022/04/28 02:45:44;;;;;;;4.30;3.95;;;;;;;33.15;58.86;100789.81;5040115;28;70462;-35
2022/04/28 02:48:17;;;;;;;3.42;3.22;;;;;;;33.22;58.71;100783.44;5040400;28;66716;-36
2022/04/28 02:50:47;;;;;;;3.75;3.55;;;;;;;33.22;58.49;100783.44;5039848;28;70546;-36
2022/04/28 02:53:18;;;;;;;3.90;3.60;;;;;;;33.19;58.47;100776.56;5041522;28;66138;-35
2022/04/28 02:55:51;;;;;;;3.53;3.28;;;;;;;33.28;58.41;100785.19;5039690;28;70273;-35
2022/04/28 02:58:22;;;;;;;3.28;3.08;;;;;;;33.27;58.36;100776.22;5039663;28;66751;-35
2022/04/28 03:00:52;;;;;;;3.85;3.63;;;;;;;33.32;58.21;100770.03;5039682;28;70260;-34
2022/04/28 03:03:22;;;;;;;3.88;3.58;;;;;;;33.34;58.00;100770.63;5039630;28;66332;-35
2022/04/28 03:11:31;;;;;;;3.33;3.13;;;;;;;33.31;57.87;100763.78;5040258;28;70063;-34
2022/04/28 03:14:02;;;;;;;3.80;3.50;;;;;;;33.45;57.92;100777.09;5023080;28;65320;-34
2022/04/28 03:16:35;;;;;;;3.40;3.10;;;;;;;33.48;57.44;100771.19;5039349;28;70284;-34
2022/04/28 03:19:08;;;;;;;3.15;2.95;;;;;;;33.45;57.83;100755.34;5039425;28;65610;-34
2022/04/28 03:21:38;;;;;;;3.42;3.13;;;;;;;33.50;57.57;100758.19;5040137;28;69966;-34
2022/04/28 03:24:10;;;;;;;3.22;3.03;;;;;;;33.42;57.38;100744.97;5039864;28;66160;-35
2022/04/28 03:26:40;;;;;;;3.17;2.97;;;;;;;33.53;57.57;100758.56;5022555;28;69104;-35
2022/04/28 03:29:14;;;;;;;3.40;3.20;;;;;;;33.54;57.58;100749.34;5038061;28;65332;-34
2022/04/28 03:31:44;;;;;;;3.10;2.90;;;;;;;33.59;57.37;100756.75;5056147;28;69623;-33
2022/04/28 03:34:41;;;;;;;3.78;3.13;;;;;;;33.59;57.34;100763.00;5037875;28;66969;-34
2022/04/28 03:37:11;;;;;;;3.13;2.92;;;;;;;33.61;57.63;100759.25;5038653;28;69189;-34
2022/04/28 03:39:44;;;;;;;5.78;3.55;;;;;;;33.62;57.29;100761.72;5040288;28;66102;-34
2022/04/28 03:42:20;;;;;;;3.35;3.15;;;;;;;33.63;56.84;100752.50;5038976;28;70406;-34
2022/04/28 03:44:51;;;;;;;3.33;3.03;;;;;;;33.64;57.25;100742.44;5038422;28;65616;-34
2022/04/28 03:47:21;;;;;;;3.50;3.10;;;;;;;33.65;56.87;100744.91;5039232;28;70015;-34
2022/04/28 03:49:56;;;;;;;2.90;2.70;;;;;;;33.17;56.80;100655.56;5037783;28;67056;-35
2022/04/28 03:52:27;;;;;;;2.88;2.67;;;;;;;33.67;56.92;100736.50;5037630;28;69329;-34
2022/04/28 03:54:57;;;;;;;3.00;2.80;;;;;;;33.65;57.22;100734.03;5038450;28;65800;-35
2022/04/28 03:57:30;;;;;;;4.68;2.72;;;;;;;33.67;56.84;100728.34;5038562;28;70289;-34
2022/04/28 04:00:00;;;;;;;3.28;3.08;;;;;;;33.69;56.95;100728.94;5039799;28;66107;-35
2022/04/28 04:02:33;;;;;;;3.17;2.97;;;;;;;33.61;56.82;100715.72;5039182;28;69590;-35
2022/04/28 04:05:05;;;;;;;;;;;;;;;33.40;57.51;100725.34;5040273;28;65827;-34
2022/04/28 04:07:38;;;;;;;3.50;3.30;;;;;;;33.68;56.79;100717.22;5040293;28;70366;-34
2022/04/28 04:10:24;;;;;;;3.33;3.13;;;;;;;33.72;56.76;100712.13;5039360;28;65503;-34
2022/04/28 04:12:59;;;;;;;3.40;3.15;;;;;;;33.46;56.63;100673.56;5021291;28;69154;-36
2022/04/28 04:15:29;;;;;;;4.15;3.17;;;;;;;33.76;56.70;100714.09;5038937;28;66769;-34
2022/04/28 04:18:03;;;;;;;3.33;3.13;;;;;;;33.79;56.72;100727.25;5039792;28;69638;-33
2022/04/28 04:21:00;;;;;;;3.90;3.50;;;;;;;33.78;56.60;100716.59;5036221;28;66725;-35
2022/04/28 04:23:31;;;;;;;4.35;3.83;;;;;;;33.83;56.59;100718.59;5037970;28;70416;-34
2022/04/28 04:26:04;;;;;;;3.70;3.40;;;;;;;33.77;56.58;100710.31;5038599;28;66988;-34
2022/04/28 04:28:34;;;;;;;3.60;3.33;;;;;;;33.85;56.62;100708.25;5037608;28;70410;-35
2022/04/28 04:34:27;;;;;;;3.78;3.58;;;;;;;33.83;56.57;100707.69;5026580;28;69446;-34
2022/04/28 04:36:57;;;;;;;3.97;3.63;;;;;;;33.88;56.47;100703.19;5038120;28;66181;-34
2022/04/28 04:39:28;;;;;;;3.47;3.28;;;;;;;33.83;56.34;100694.09;5034052;28;70032;-35
2022/04/28 04:41:59;;;;;;;4.23;3.93;;;;;;;33.89;56.29;100698.56;5038719;28;66920;-34
2022/04/28 04:44:29;;;;;;;3.78;3.58;;;;;;;33.92;56.35;100695.34;5042800;28;70665;-34
2022/04/28 04:46:59;;;;;;;3.90;3.60;;;;;;;33.91;56.40;100686.34;5041324;28;66187;-34
2022/04/28 04:49:34;;;;;;;4.53;4.18;;;;;;;33.92;56.38;100690.72;5040224;28;70119;-34
2022/04/28 04:52:14;;;;;;;4.90;4.30;;;;;;;33.94;56.32;100690.50;5041136;28;65331;-33
2022/04/28 04:55:06;;;;;;;5.07;4.05;;;;;;;33.96;56.46;100685.59;5040490;28;70280;-35
2022/04/28 04:58:03;;;;;;;4.53;3.75;;;;;;;33.96;56.29;100680.16;5022680;28;65360;-34
2022/04/28 05:00:34;;;;;;;3.53;3.33;;;;;;;33.95;56.43;100682.06;5019997;28;71712;-35
2022/04/28 05:03:25;;;;;;;4.43;3.80;;;;;;;33.98;56.23;100683.47;4977352;28;65313;-35
2022/04/28 05:06:14;;;;;;;4.25;3.83;;;;;;;33.99;56.15;100690.56;5021493;28;70257;-34
2022/04/28 05:08:58;;;;;;;4.43;4.18;;;;;;;33.99;56.21;100675.06;5003564;28;66153;-34
2022/04/28 05:11:30;;;;;;;4.32;3.95;;;;;;;34.01;56.43;100672.91;5021289;28;70525;-34
2022/04/28 05:14:22;;;;;;;4.07;3.78;;;;;;;33.79;56.47;100631.16;5020894;28;66101;-34
2022/04/28 05:16:57;;;;;;;4.22;3.97;;;;;;;34.01;56.16;100662.03;5020653;28;70272;-34
2022/04/28 05:19:51;;;;;;;4.60;4.22;;;;;;;34.05;55.98;100656.97;5015472;28;66404;-34
2022/04/28 05:22:39;;;;;;;5.07;3.78;;;;;;;34.07;56.02;100654.78;5022427;28;69725;-35
2022/04/28 05:25:29;;;;;;;3.70;3.42;;;;;;;34.09;56.30;100641.78;5022110;28;66814;-34
2022/04/28 05:28:28;;;;;;;4.50;4.10;;;;;;;34.11;56.22;100623.31;4992797;28;69546;-35
2022/04/28 05:31:37;;;;;;;4.30;3.90;;;;;;;34.14;55.80;100628.25;4997899;28;68031;-34
2022/04/28 05:34:10;;;;;;;4.13;3.83;;;;;;;34.17;55.77;100621.47;4998338;28;69340;-35
2022/04/28 05:36:46;;;;;;;3.97;3.63;;;;;;;34.18;55.84;100606.78;5022374;28;66253;-34
2022/04/28 05:39:22;;;;;;;4.22;3.83;;;;;;;34.10;55.76;100577.25;5040407;28;70336;-34
2022/04/28 05:41:52;;;;;;;3.92;3.63;;;;;;;34.23;55.61;100595.97;5042637;28;64963;-34
2022/04/28 05:47:11;;;;;;;4.57;3.60;;;;;;;34.26;55.91;100593.56;5040960;28;66565;-37
2022/04/28 05:49:42;;;;;;;4.18;3.88;;;;;;;34.30;55.55;100579.44;5040448;28;70806;-35
2022/04/28 05:52:13;;;;;;;4.75;3.50;;;;;;;34.26;55.57;100560.91;5041200;28;66558;-35
2022/04/28 05:54:44;;;;;;;3.97;3.63;;;;;;;34.10;55.58;100517.38;5042479;28;69207;-35
2022/04/28 05:57:15;;;;;;;3.92;3.63;;;;;;;34.37;55.30;100561.03;5041245;28;66565;-34
2022/04/28 05:59:45;;;;;;;3.20;3.00;;;;;;;34.36;55.27;100549.34;5040235;28;70008;-34
2022/04/28 06:02:38;;;;;;;3.38;3.08;;;;;;;34.39;55.40;100553.47;5034295;28;65864;-34
2022/04/28 06:05:12;;;;;;;3.75;3.45;;;;;;;34.42;55.20;100547.50;5039020;28;69447;-36
2022/04/28 06:07:43;;;;;;;3.33;3.13;;;;;;;34.45;55.32;100541.53;5039741;28;66007;-34
2022/04/28 06:10:14;;;;;;;3.95;3.75;;;;;;;34.46;55.09;100527.69;5040265;28;69168;-34
2022/04/28 06:12:45;;;;;;;4.27;3.70;;;;;;;34.50;55.07;100533.44;5040728;28;65643;-33
2022/04/28 06:15:41;;;;;;;3.83;3.45;;;;;;;34.51;54.90;100524.19;5042299;28;70468;-34
2022/04/28 06:18:31;;;;;;;3.55;3.35;;;;;;;34.55;55.10;100514.44;5038566;28;66601;-34
2022/04/28 06:21:21;;;;;;;4.00;3.60;;;;;;;34.52;55.23;100504.06;5041641;28;69894;-35
2022/04/28 06:23:53;;;;;;;3.33;3.13;;;;;;;34.63;54.82;100510.47;5038126;28;65837;-34
2022/04/28 06:26:23;;;;;;;3.55;3.35;;;;;;;34.54;54.86;100482.81;5039994;28;68981;-33
2022/04/28 06:28:53;;;;;;;6.00;3.30;;;;;;;34.72;54.94;100513.59;5039355;28;66192;-34
2022/04/28 06:31:30;;;;;;;3.35;3.05;;;;;;;34.77;54.57;100505.44;5040195;28;70113;-34
2022/04/28 06:34:23;;;;;;;4.10;3.70;;;;;;;34.76;54.66;100504.63;5036444;28;65610;-33
2022/04/28 06:36:54;;;;;;;3.67;3.35;;;;;;;34.80;54.71;100494.03;5039757;28;70016;-35
2022/04/28 06:39:26;;;;;;;4.43;3.38;;;;;;;34.86;54.37;100493.84;5039352;28;66065;-34
2022/04/28 06:41:56;;;;;;;3.50;3.30;;;;;;;34.87;54.49;100481.84;5037528;28;70327;-34
2022/04/28 06:44:47;;;;;;;3.67;3.38;;;;;;;34.91;54.60;100479.44;5041211;28;66008;-35
2022/04/28 06:47:37;;;;;;;5.20;3.60;;;;;;;34.97;54.22;100472.97;5040884;28;70180;-34
2022/04/28 06:50:27;;;;;;;4.22;3.75;;;;;;;34.90;54.55;100456.81;5040387;28;66565;-34
2022/04/28 06:53:23;;;;;;;10.88;3.30;;;;;;;35.07;53.97;100478.53;5039450;28;70130;-34
2022/04/28 06:55:59;;;;;;;5.82;3.30;;;;;;;35.08;53.96;100466.56;5055342;28;65366;-35
2022/04/28 06:58:34;;;;;;;10.23;3.35;;;;;;;35.18;53.85;100465.00;5055918;28;70324;-34
2022/04/28 07:01:08;;;;;;;3.97;3.25;;;;;;;35.14;54.06;100446.44;5039951;28;65472;-34
2022/04/28 07:03:40;;;;;;;3.20;3.00;;;;;;;35.25;53.43;100457.44;5040048;28;69946;-34
2022/04/28 07:06:10;;;;;;;3.15;2.83;;;;;;;35.28;53.35;100454.19;5038390;28;65514;-35
2022/04/28 07:08:41;;;;;;;3.67;2.85;;;;;;;35.35;53.77;100452.03;5037893;28;70365;-34
2022/04/28 07:11:11;;;;;;;3.78;3.53;;;;;;;35.38;53.57;100446.06;5055809;28;65573;-35
2022/04/28 07:13:42;;;;;;;3.10;2.78;;;;;;;35.40;53.38;100449.34;5056436;28;69906;-35
2022/04/28 07:16:42;;;;;;;3.47;3.22;;;;;;;35.43;53.49;100440.66;5020821;28;66360;-34
2022/04/28 07:19:23;;;;;;;5.97;3.00;;;;;;;35.38;52.75;100410.59;5018534;28;70346;-35
2022/04/28 07:21:54;;;;;;;5.63;2.88;;;;;;;35.55;52.67;100432.25;5017788;28;66368;-34
2022/04/28 07:24:26;;;;;;;2.92;2.72;;;;;;;35.60;52.30;100426.88;5019046;28;70118;-35
2022/04/28 07:26:56;;;;;;;4.05;3.65;;;;;;;35.62;52.47;100419.25;5018149;28;65955;-37
2022/04/28 07:29:27;;;;;;;4.00;3.58;;;;;;;35.68;52.57;100422.84;5035524;28;70536;-35
2022/04/28 07:32:23;;;;;;;3.72;3.05;;;;;;;35.65;52.08;100407.00;5014190;28;66330;-34
2022/04/28 07:35:28;;;;;;;3.90;3.03;;;;;;;35.75;52.35;100407.06;4977685;28;68687;-34
2022/04/28 07:38:17;;;;;;;2.95;2.40;;;;;;;35.78;52.46;100401.06;5036871;28;65362;-34
2022/04/28 07:41:14;;;;;;;3.00;2.75;;;;;;;35.84;51.90;100404.63;5037607;28;70900;-36
2022/04/28 07:43:44;;;;;;;3.00;2.70;;;;;;;35.78;52.10;100392.88;5039908;28;65489;-35
2022/04/28 07:46:15;;;;;;;3.50;2.72;;;;;;;35.90;52.31;100398.94;5053832;28;70133;-35
2022/04/28 07:48:45;;;;;;;3.65;2.60;;;;;;;35.94;51.88;100400.06;5037687;28;65620;-35
2022/04/28 07:51:17;;;;;;;3.03;2.83;;;;;;;35.93;51.79;100394.84;5040180;28;70326;-34
2022/04/28 07:53:47;;;;;;;4.35;2.20;;;;;;;36.01;51.48;100400.63;5037887;28;66670;-33
2022/04/28 07:56:18;;;;;;;4.57;2.58;;;;;;;35.72;51.83;100355.75;5038389;28;69867;-33
2022/04/28 07:58:50;;;;;;;2.58;2.38;;;;;;;36.06;51.57;100385.38;5021752;28;65268;-34
2022/04/28 08:01:47;;;;;;;2.40;2.20;;;;;;;36.00;51.37;100381.78;5038263;28;70330;-34
2022/04/28 08:04:18;;;;;;;3.08;2.85;;;;;;;36.06;51.60;100379.94;5037943;28;65590;-35
2022/04/28 08:06:57;;;;;;;5.45;2.80;;;;;;;36.15;50.93;100386.50;5037980;28;69879;-35
2022/04/28 08:09:30;;;;;;;3.67;2.70;;;;;;;36.17;50.92;100387.88;5040579;28;66426;-34
2022/04/28 08:12:09;;;;;;;3.83;2.70;;;;;;;36.21;51.08;100388.97;5041582;28;69860;-35
2022/04/28 08:15:01;;;;;;;3.28;2.95;;;;;;;36.24;50.90;100382.16;5041348;28;65846;-34
2022/04/28 08:17:32;;;;;;;5.22;2.70;;;;;;;36.24;50.74;100371.22;5042005;28;70036;-35
2022/04/28 08:20:02;;;;;;;6.15;3.22;;;;;;;36.24;51.25;100365.75;5025477;28;64975;-34
2022/04/28 08:22:33;;;;;;;3.10;2.90;;;;;;;36.14;51.06;100338.47;5024405;28;69313;-34
2022/04/28 08:25:04;;;;;;;4.75;3.92;;;;;;;36.28;51.00;100353.22;5043520;28;66180;-34
2022/04/28 08:27:34;;;;;;;5.32;2.60;;;;;;;36.28;51.32;100350.50;5041929;28;69497;-34
2022/04/28 08:30:05;;;;;;;;;;;;;;;36.07;51.62;100351.53;5039533;28;65539;-35
2022/04/28 08:32:36;;;;;;;6.57;2.85;;;;;;;36.32;51.23;100362.50;5041911;28;69719;-35
2022/04/28 08:35:06;;;;;;;2.85;2.63;;;;;;;36.30;50.94;100358.41;5041747;28;65627;-34
2022/04/28 08:37:39;;;;;;;3.90;2.37;;;;;;;36.34;51.24;100365.78;5040374;28;69163;-35
2022/04/28 08:40:10;;;;;;;6.35;2.72;;;;;;;36.38;51.21;100357.88;5056452;28;65395;-35
2022/04/28 08:42:42;;;;;;;3.00;2.70;;;;;;;36.38;50.87;100355.97;5041488;28;70317;-34
2022/04/28 08:45:22;;;;;;;3.03;2.83;;;;;;;36.31;50.58;100328.09;5041077;28;66281;-34
2022/04/28 08:48:11;;;;;;;4.47;2.83;;;;;;;36.37;50.32;100332.47;5040622;28;69402;-33
2022/04/28 08:51:01;;;;;;;3.47;3.17;;;;;;;36.36;51.01;100333.59;5042889;28;66483;-34
2022/04/28 08:53:32;;;;;;;3.92;3.25;;;;;;;36.37;50.62;100337.94;5056719;28;71300;-34
2022/04/28 08:56:03;;;;;;;3.53;2.58;;;;;;;36.37;50.88;100340.66;5041224;28;66184;-35
2022/04/28 08:58:33;;;;;;;4.32;3.08;;;;;;;36.37;50.56;100335.22;5040086;28;69696;-35
2022/04/28 09:01:06;;;;;;;3.20;2.33;;;;;;;36.38;50.73;100338.75;5023624;28;65545;-35
2022/04/28 09:03:59;;;;;;;3.65;2.40;;;;;;;36.40;50.93;100348.31;5040923;28;69425;-34
2022/04/28 09:06:58;;;;;;;2.83;2.25;;;;;;;36.37;50.56;100354.31;5040633;28;65583;-34
2022/04/28 09:09:38;;;;;;;5.07;2.65;;;;;;;36.37;51.06;100359.78;5040748;28;69954;-35
2022/04/28 09:12:32;;;;;;;3.40;2.60;;;;;;;36.36;50.82;100360.91;5039564;28;65458;-34
2022/04/28 09:15:27;;;;;;;6.05;2.65;;;;;;;36.37;50.78;100359.78;5041145;28;69355;-34
2022/04/28 09:18:10;;;;;;;3.40;2.38;;;;;;;36.24;50.85;100335.72;5056774;28;65221;-34
2022/04/28 09:20:42;;;;;;;3.97;2.38;;;;;;;36.36;50.74;100351.84;5040682;28;70105;-34
2022/04/28 09:23:15;;;;;;;2.70;2.50;;;;;;;36.30;50.86;100342.84;5057241;28;65792;-34
2022/04/28 09:25:49;;;;;;;3.63;2.40;;;;;;;35.86;50.23;100266.00;5039573;28;70413;-34
2022/04/28 09:28:19;;;;;;;1.97;1.83;;;;;;;36.31;50.85;100346.41;5042327;28;65482;-33
2022/04/28 09:30:52;;;;;;;3.60;2.10;;;;;;;36.31;50.81;100343.69;5041054;28;69455;-34
2022/04/28 09:33:41;;;;;;;2.60;2.40;;;;;;;36.21;50.29;100339.00;5041034;28;66422;-33
2022/04/28 09:36:30;;;;;;;3.72;3.05;;;;;;;36.22;50.91;100357.03;5041442;28;70241;-33
2022/04/28 09:45:01;;;;;;;2.75;2.38;;;;;;;35.53;50.57;100235.31;5035530;28;66226;-33
2022/04/28 09:47:38;;;;;;;2.80;2.60;;;;;;;36.25;51.05;100351.03;5039014;28;70137;-33
2022/04/28 09:50:16;;;;;;;2.45;2.25;;;;;;;36.25;50.29;100359.22;5039692;28;65364;-34
2022/04/28 09:53:06;;;;;;;2.33;2.03;;;;;;;36.25;51.13;100356.50;5041546;28;69907;-34
2022/04/28 09:55:40;;;;;;;2.22;2.03;;;;;;;36.14;50.46;100342.00;5038189;28;65912;-34
2022/04/28 09:58:27;;;;;;;2.42;2.22;;;;;;;35.88;51.03;100307.50;5024276;28;69422;-34
2022/04/28 10:01:02;;;;;;;2.00;1.90;;;;;;;36.21;50.96;100371.78;5039578;28;66972;-34
2022/04/28 10:03:40;;;;;;;2.33;2.10;;;;;;;36.22;50.45;100382.44;5039054;28;70114;-34
2022/04/28 10:06:17;;;;;;;2.10;2.00;;;;;;;35.91;50.82;100339.69;5038408;28;66817;-33
2022/04/28 10:08:56;;;;;;;;;;;;;;;35.92;51.39;100402.22;5041451;28;70551;-34
2022/04/28 10:11:29;;;;;;;2.67;2.47;;;;;;;36.18;50.78;100418.72;5040681;28;66294;-34
2022/04/28 10:14:01;;;;;;;2.42;2.10;;;;;;;36.15;50.92;100422.00;5040378;28;69416;-34
2022/04/28 10:16:33;;;;;;;3.22;2.30;;;;;;;35.87;51.25;100387.72;5040989;28;66153;-34
2022/04/28 10:19:19;;;;;;;;;;;;;;;35.89;51.93;100454.63;5022556;28;69517;-33
2022/04/28 10:22:00;;;;;;;1.92;1.80;;;;;;;35.73;50.83;100392.84;5058917;28;66180;-34
2022/04/28 10:33:21;;;;;;;5.20;3.28;;;;;;;35.73;52.24;100414.69;5039611;28;66281;-33
2022/04/28 10:35:53;;;;;;;16.55;3.13;;;;;;;35.89;53.54;100473.72;5028854;28;69356;-34
2022/04/28 10:38:31;;;;;;;5.03;2.80;;;;;;;35.80;53.89;100486.19;5028139;28;65500;-35
2022/04/28 10:41:10;;;;;;;14.98;3.03;;;;;;;35.69;54.49;100501.72;5037170;28;69781;-35
2022/04/28 10:43:43;;;;;;;10.32;3.42;;;;;;;35.60;54.31;100502.44;5040453;28;65790;-34
2022/04/28 10:46:22;;;;;;;4.35;2.90;;;;;;;35.51;54.50;100511.06;5028749;28;69445;-33
2022/04/28 10:49:01;;;;;;;6.93;2.80;;;;;;;35.36;54.47;100513.69;5021174;28;66189;-33
2022/04/28 10:51:33;;;;;;;9.82;2.78;;;;;;;35.39;54.46;100526.81;5024701;28;69169;-33
2022/04/28 10:54:09;;;;;;;4.15;2.83;;;;;;;35.32;54.58;100537.09;5031399;28;65724;-32
2022/04/28 10:56:42;;;;;;;4.78;3.00;;;;;;;35.26;54.32;100543.59;5025841;28;69239;-33
2022/04/28 10:59:34;;;;;;;5.28;2.45;;;;;;;35.06;55.47;100558.66;5022905;28;66552;-33
2022/04/28 11:02:15;;;;;;;6.20;3.22;;;;;;;35.12;55.25;100554.91;5018133;28;70236;-34
2022/04/28 11:04:55;;;;;;;3.90;2.78;;;;;;;34.72;55.34;100491.78;5019652;28;65892;-33
2022/04/28 11:07:29;;;;;;;6.25;2.45;;;;;;;34.99;56.10;100547.09;5019345;28;70489;-34
2022/04/28 11:10:05;;;;;;;3.90;2.65;;;;;;;34.98;56.07;100553.63;5027772;28;66474;-34
2022/04/28 11:12:37;;;;;;;9.68;2.75;;;;;;;35.04;56.42;100577.13;5033252;28;69877;-35
2022/04/28 11:15:16;;;;;;;4.93;2.75;;;;;;;35.05;56.13;100583.41;5018478;28;66614;-35
2022/04/28 11:17:46;;;;;;;3.30;3.00;;;;;;;35.01;56.34;100585.00;5025636;28;69529;-34
2022/04/28 11:20:21;;;;;;;3.22;2.83;;;;;;;35.00;56.37;100581.47;5030919;28;66839;-34
2022/04/28 11:23:02;;;;;;;7.15;3.05;;;;;;;34.97;56.60;100581.97;5039319;28;69977;-37
2022/04/28 11:25:32;;;;;;;2.70;2.50;;;;;;;34.97;57.29;100573.81;5024140;28;65678;-35
2022/04/28 11:28:09;;;;;;;5.25;2.38;;;;;;;34.60;56.70;100516.41;5023663;28;69853;-36
2022/04/28 11:30:43;;;;;;;2.97;2.50;;;;;;;34.96;57.13;100585.78;5035096;28;65703;-34
2022/04/28 11:33:13;;;;;;;9.30;2.55;;;;;;;34.95;57.31;100583.31;5025380;28;69059;-35
2022/04/28 11:35:43;;;;;;;2.58;2.38;;;;;;;34.91;57.48;100589.28;5027389;28;66314;-34
2022/04/28 11:38:14;;;;;;;4.80;2.58;;;;;;;34.90;57.57;100594.97;5022657;28;69258;-34
2022/04/28 11:41:03;;;;;;;5.57;3.00;;;;;;;34.84;57.58;100596.00;5032223;28;66090;-37
2022/04/28 11:43:34;;;;;;;4.63;3.13;;;;;;;34.86;57.62;100596.56;5026214;28;70520;-33
2022/04/28 11:46:06;;;;;;;5.03;3.13;;;;;;;34.83;57.71;100603.34;5032270;28;65394;-35
2022/04/28 11:48:38;;;;;;;3.90;3.40;;;;;;;34.84;57.81;100606.91;5050540;28;70109;-34
2022/04/28 11:51:09;;;;;;;3.60;3.30;;;;;;;34.81;57.97;100608.22;5032832;28;65195;-35
2022/04/28 11:53:44;;;;;;;3.08;2.78;;;;;;;34.74;58.22;100604.03;5027961;28;70321;-38
2022/04/28 11:56:18;;;;;;;8.18;3.30;;;;;;;34.80;57.96;100622.09;5029691;28;67394;-35
2022/04/28 11:58:50;;;;;;;5.95;3.65;;;;;;;34.79;58.10;100634.91;5035371;28;70238;-33
2022/04/28 12:01:22;;;;;;;5.40;4.05;;;;;;;34.76;58.16;100640.03;5032120;28;65409;-34
2022/04/28 12:03:54;;;;;;;7.85;4.28;;;;;;;34.62;58.66;100628.69;5035947;28;70486;-35
2022/04/28 12:06:26;;;;;;;5.70;4.18;;;;;;;34.73;58.43;100646.00;5039957;28;65834;-35
2022/04/28 12:14:42;;;;;;;8.95;3.97;;;;;;;34.44;57.60;100638.78;5029194;28;69253;-36
2022/04/28 12:20:03;;;;;;;7.18;4.45;;;;;;;34.41;58.10;100655.63;5027032;28;69995;-37
2022/04/28 12:22:39;;;;;;;6.45;3.75;;;;;;;34.32;58.30;100640.75;5027045;28;66632;-36
2022/04/28 12:25:17;;;;;;;4.82;3.20;;;;;;;34.33;58.68;100663.38;5023859;28;70680;-37
2022/04/28 12:27:53;;;;;;;4.85;3.10;;;;;;;34.31;58.58;100665.53;5036437;28;65627;-35
2022/04/28 12:30:23;;;;;;;5.05;2.83;;;;;;;34.28;58.50;100663.31;5037931;28;69232;-35
2022/04/28 12:32:54;;;;;;;4.30;3.00;;;;;;;34.22;58.60;100660.50;5035430;28;66180;-36
2022/04/28 12:35:35;;;;;;;5.45;3.00;;;;;;;34.17;59.58;100671.28;5035230;28;69502;-36
2022/04/28 12:38:10;;;;;;;5.88;3.35;;;;;;;34.17;59.16;100676.75;5025254;28;66059;-36
2022/04/28 12:40:42;;;;;;;6.32;3.00;;;;;;;34.18;59.65;100667.50;5034578;28;69407;-35
2022/04/28 12:43:12;;;;;;;8.73;2.97;;;;;;;34.17;59.12;100665.03;5030654;28;65254;-35
2022/04/28 12:45:54;;;;;;;8.05;3.45;;;;;;;34.18;59.83;100674.84;5031112;28;70358;-35
2022/04/28 12:48:31;;;;;;;7.43;3.35;;;;;;;34.18;59.15;100693.91;5028847;28;65697;-35
2022/04/28 12:51:13;;;;;;;3.47;3.00;;;;;;;34.07;59.61;100700.25;5029953;28;70084;-35